createdAt,value
2023-05-10T00:00:10.322Z,2.53
2023-05-10T00:01:13.570Z,2.63
2023-05-10T00:02:15.765Z,2.45
2023-05-10T00:03:19.010Z,2.92
2023-05-10T00:04:22.605Z,2.40
2023-05-10T00:05:25.786Z,2.35
2023-05-10T00:06:28.018Z,2.50
2023-05-10T00:07:31.366Z,2.60
2023-05-10T00:08:33.537Z,2.33
2023-05-10T00:09:38.267Z,2.17
2023-05-10T00:10:41.583Z,2.30
2023-05-10T00:11:44.985Z,2.60
2023-05-10T00:12:48.299Z,2.70
2023-05-10T00:13:51.736Z,2.50
2023-05-10T00:14:54.093Z,2.40
2023-05-10T00:15:57.511Z,2.40
2023-05-10T00:16:59.948Z,2.33
2023-05-10T00:18:03.328Z,2.50
2023-05-10T00:19:05.573Z,2.70
2023-05-10T00:20:09.569Z,2.50
2023-05-10T00:21:14.185Z,2.60
2023-05-10T00:22:17.400Z,2.50
2023-05-10T00:23:19.708Z,2.55
2023-05-10T00:24:22.930Z,2.40
2023-05-10T00:25:26.648Z,2.13
2023-05-10T00:26:29.998Z,2.58
2023-05-10T00:27:32.377Z,2.83
2023-05-10T00:28:35.522Z,2.30
2023-05-10T00:29:37.666Z,2.30
2023-05-10T00:30:40.926Z,2.67
2023-05-10T00:31:43.635Z,2.65
2023-05-10T00:32:46.921Z,3.30
2023-05-10T00:33:49.747Z,2.30
2023-05-10T00:34:53.274Z,2.60
2023-05-10T00:35:57.729Z,2.40
2023-05-10T00:37:02.606Z,2.42
2023-05-10T00:38:07.525Z,2.30
2023-05-10T00:39:14.151Z,2.25
2023-05-10T00:40:17.395Z,2.33
2023-05-10T00:41:24.002Z,2.33
2023-05-10T00:42:26.211Z,2.58
2023-05-10T00:43:29.527Z,2.30
2023-05-10T00:44:32.085Z,2.20
2023-05-10T00:45:36.646Z,2.55
2023-05-10T00:46:39.002Z,2.17
2023-05-10T00:47:42.795Z,2.80
2023-05-10T00:48:46.655Z,2.40
2023-05-10T00:49:50.087Z,2.30
2023-05-10T00:50:52.619Z,2.50
2023-05-10T00:51:56.255Z,2.28
2023-05-10T00:52:59.330Z,2.33
2023-05-10T00:54:02.719Z,2.60
2023-05-10T00:55:05.936Z,2.40
2023-05-10T00:56:09.879Z,2.58
2023-05-10T00:57:13.548Z,2.15
2023-05-10T00:58:17.187Z,2.60
2023-05-10T00:59:19.977Z,2.72
2023-05-10T01:00:23.330Z,2.97
2023-05-10T01:01:26.460Z,2.50
2023-05-10T01:02:29.983Z,2.40
2023-05-10T01:03:33.522Z,2.80
2023-05-10T01:04:38.213Z,2.93
2023-05-10T01:05:40.497Z,2.40
2023-05-10T01:06:44.464Z,2.45
2023-05-10T01:07:49.151Z,2.90
2023-05-10T01:08:52.668Z,2.60
2023-05-10T01:09:55.214Z,2.33
2023-05-10T01:10:59.034Z,2.25
2023-05-10T01:12:02.974Z,2.47
2023-05-10T01:13:08.218Z,2.50
2023-05-10T01:14:11.015Z,2.45
2023-05-10T01:15:16.387Z,2.60
2023-05-10T01:16:19.166Z,2.38
2023-05-10T01:17:24.175Z,2.78
2023-05-10T01:18:28.071Z,2.45
2023-05-10T01:19:35.991Z,2.65
2023-05-10T01:20:44.606Z,2.50
2023-05-10T01:22:02.827Z,2.65
2023-05-10T01:23:36.832Z,2.70
2023-05-10T01:25:11.155Z,2.70
2023-05-10T01:26:34.766Z,2.50
2023-05-10T01:28:11.286Z,2.67
2023-05-10T01:29:30.425Z,2.45
2023-05-10T01:31:06.132Z,2.25
2023-05-10T01:32:36.475Z,2.38
2023-05-10T01:33:44.490Z,2.60
2023-05-10T01:34:55.860Z,2.97
2023-05-10T01:36:07.926Z,2.70
2023-05-10T01:37:15.021Z,2.35
2023-05-10T01:38:23.489Z,2.20
2023-05-10T01:39:29.819Z,2.45
2023-05-10T01:40:38.916Z,2.47
2023-05-10T01:41:49.317Z,2.60
2023-05-10T01:42:59.496Z,2.58
2023-05-10T01:44:09.588Z,2.47
2023-05-10T01:45:21.271Z,2.83
2023-05-10T01:46:30.006Z,2.50
2023-05-10T01:47:46.881Z,2.78
2023-05-10T01:48:52.718Z,2.20
2023-05-10T01:49:57.665Z,2.20
2023-05-10T01:51:00.138Z,2.67
2023-05-10T01:52:10.796Z,2.30
2023-05-10T01:53:14.251Z,2.50
2023-05-10T01:54:21.680Z,2.15
2023-05-10T01:55:28.711Z,2.80
2023-05-10T01:56:34.668Z,2.47
2023-05-10T01:57:40.638Z,2.50
2023-05-10T01:58:47.483Z,2.42
2023-05-10T01:59:52.019Z,2.55
2023-05-10T02:01:01.353Z,2.33
2023-05-10T02:02:05.667Z,2.53
2023-05-10T02:03:12.545Z,2.57
2023-05-10T02:04:18.017Z,2.13
2023-05-10T02:05:23.208Z,2.15
2023-05-10T02:06:26.508Z,2.10
2023-05-10T02:07:31.084Z,2.45
2023-05-10T02:08:36.788Z,2.50
2023-05-10T02:09:41.157Z,2.50
2023-05-10T02:10:46.101Z,2.45
2023-05-10T02:11:51.383Z,2.30
2023-05-10T02:12:56.351Z,2.75
2023-05-10T02:14:01.102Z,2.40
2023-05-10T02:15:07.012Z,2.55
2023-05-10T02:16:12.605Z,3.10
2023-05-10T02:17:15.521Z,2.70
2023-05-10T02:18:20.957Z,2.65
2023-05-10T02:19:24.721Z,2.50
2023-05-10T02:20:29.292Z,2.80
2023-05-10T02:21:33.793Z,2.60
2023-05-10T02:22:39.182Z,2.40
2023-05-10T02:23:41.762Z,2.38
2023-05-10T02:24:47.646Z,2.57
2023-05-10T02:25:50.724Z,2.63
2023-05-10T02:27:00.582Z,2.35
2023-05-10T02:28:08.556Z,2.30
2023-05-10T02:29:16.251Z,2.38
2023-05-10T02:30:20.002Z,2.40
2023-05-10T02:31:24.493Z,2.78
2023-05-10T02:32:28.531Z,2.40
2023-05-10T02:33:35.839Z,2.78
2023-05-10T02:34:39.488Z,2.55
2023-05-10T02:35:43.732Z,2.50
2023-05-10T02:36:46.113Z,2.17
2023-05-10T02:37:50.038Z,2.20
2023-05-10T02:38:54.431Z,2.30
2023-05-10T02:39:58.862Z,2.95
2023-05-10T02:41:02.819Z,2.17
2023-05-10T02:42:07.510Z,2.45
2023-05-10T02:43:14.455Z,2.13
2023-05-10T02:44:21.079Z,2.15
2023-05-10T02:45:27.362Z,2.17
2023-05-10T02:46:31.033Z,1.97
2023-05-10T02:47:33.683Z,2.10
2023-05-10T02:48:39.408Z,2.30
2023-05-10T02:49:41.888Z,2.15
2023-05-10T02:50:47.812Z,2.42
2023-05-10T02:51:57.855Z,2.05
2023-05-10T02:53:06.085Z,2.25
2023-05-10T02:54:13.213Z,2.30
2023-05-10T02:55:18.633Z,2.13
2023-05-10T02:56:26.912Z,2.38
2023-05-10T02:57:34.876Z,2.50
2023-05-10T02:58:37.813Z,2.75
2023-05-10T02:59:41.306Z,2.53
2023-05-10T03:00:43.540Z,2.25
2023-05-10T03:01:46.851Z,2.33
2023-05-10T03:02:49.423Z,2.53
2023-05-10T03:03:54.088Z,2.40
2023-05-10T03:04:56.823Z,2.17
2023-05-10T03:06:00.331Z,2.17
2023-05-10T03:07:03.110Z,2.22
2023-05-10T03:08:07.936Z,2.53
2023-05-10T03:09:13.329Z,2.60
2023-05-10T03:10:17.082Z,2.10
2023-05-10T03:11:33.370Z,2.42
2023-05-10T03:12:55.320Z,2.40
2023-05-10T03:14:09.091Z,2.20
2023-05-10T03:15:20.605Z,2.20
2023-05-10T03:16:28.556Z,2.25
2023-05-10T03:17:38.359Z,2.55
2023-05-10T03:18:45.264Z,2.10
2023-05-10T03:19:55.376Z,2.47
2023-05-10T03:21:00.617Z,2.03
2023-05-10T03:22:12.360Z,2.05
2023-05-10T03:23:22.577Z,2.08
2023-05-10T03:24:29.623Z,2.70
2023-05-10T03:25:32.908Z,2.40
2023-05-10T03:26:39.451Z,2.70
2023-05-10T03:27:44.510Z,2.70
2023-05-10T03:28:49.884Z,3.05
2023-05-10T03:29:54.094Z,2.38
2023-05-10T03:30:58.965Z,2.70
2023-05-10T03:32:01.631Z,2.42
2023-05-10T03:33:07.474Z,2.40
2023-05-10T03:34:09.831Z,2.70
2023-05-10T03:35:15.669Z,2.65
2023-05-10T03:36:18.946Z,2.58
2023-05-10T03:37:21.256Z,3.00
2023-05-10T03:38:24.851Z,2.30
2023-05-10T03:39:27.000Z,2.72
2023-05-10T03:40:32.876Z,2.50
2023-05-10T03:41:35.663Z,2.90
2023-05-10T03:42:38.943Z,2.78
2023-05-10T03:43:41.910Z,3.10
2023-05-10T03:44:45.079Z,2.60
2023-05-10T03:45:47.872Z,3.03
2023-05-10T03:46:51.094Z,2.80
2023-05-10T03:47:53.663Z,2.60
2023-05-10T03:48:56.891Z,2.92
2023-05-10T03:49:59.063Z,2.60
2023-05-10T03:51:04.264Z,3.28
2023-05-10T03:52:06.510Z,3.40
2023-05-10T03:53:09.667Z,3.10
2023-05-10T03:54:11.794Z,3.25
2023-05-10T03:55:15.222Z,3.33
2023-05-10T03:56:17.352Z,3.10
2023-05-10T03:57:20.722Z,3.40
2023-05-10T03:58:23.053Z,3.88
2023-05-10T03:59:26.235Z,3.35
2023-05-10T04:00:28.399Z,2.97
2023-05-10T04:01:31.536Z,3.10
2023-05-10T04:02:34.021Z,3.10
2023-05-10T04:03:37.897Z,3.22
2023-05-10T04:04:40.223Z,2.95
2023-05-10T04:05:43.396Z,3.50
2023-05-10T04:06:46.973Z,3.15
2023-05-10T04:07:50.919Z,2.60
2023-05-10T04:08:53.055Z,3.17
2023-05-10T04:09:56.370Z,3.17
2023-05-10T04:11:07.009Z,2.80
2023-05-10T04:12:11.061Z,2.88
2023-05-10T04:13:13.393Z,3.17
2023-05-10T04:14:16.782Z,3.20
2023-05-10T04:15:19.008Z,3.40
2023-05-10T04:16:22.201Z,3.50
2023-05-10T04:17:24.359Z,3.97
2023-05-10T04:18:27.550Z,3.28
2023-05-10T04:19:31.340Z,3.50
2023-05-10T04:20:34.977Z,3.75
2023-05-10T04:21:37.872Z,3.33
2023-05-10T04:22:42.698Z,2.78
2023-05-10T04:23:45.007Z,3.07
2023-05-10T04:24:48.162Z,4.05
2023-05-10T04:25:50.322Z,4.03
2023-05-10T04:26:54.335Z,3.70
2023-05-10T04:27:57.647Z,3.60
2023-05-10T04:29:00.855Z,3.03
2023-05-10T04:30:03.642Z,3.28
2023-05-10T04:31:07.551Z,3.40
2023-05-10T04:32:11.154Z,3.13
2023-05-10T04:33:15.442Z,3.35
2023-05-10T04:34:17.582Z,3.03
2023-05-10T04:35:20.781Z,3.78
2023-05-10T04:36:22.920Z,3.92
2023-05-10T04:37:26.117Z,3.40
2023-05-10T04:38:30.486Z,3.28
2023-05-10T04:39:33.657Z,3.70
2023-05-10T04:40:35.928Z,3.10
2023-05-10T04:41:40.434Z,3.50
2023-05-10T04:42:42.780Z,4.15
2023-05-10T04:43:46.187Z,3.90
2023-05-10T04:44:48.447Z,3.83
2023-05-10T04:45:51.767Z,3.67
2023-05-10T04:46:54.971Z,3.80
2023-05-10T04:47:57.221Z,3.47
2023-05-10T04:49:00.710Z,3.50
2023-05-10T04:50:03.099Z,4.00
2023-05-10T04:51:07.585Z,3.65
2023-05-10T04:52:09.781Z,3.60
2023-05-10T04:53:14.633Z,3.55
2023-05-10T04:54:19.503Z,3.67
2023-05-10T04:55:22.671Z,3.37
2023-05-10T04:56:24.856Z,2.92
2023-05-10T04:57:28.179Z,4.07
2023-05-10T04:58:30.360Z,3.80
2023-05-10T04:59:33.486Z,3.38
2023-05-10T05:00:35.698Z,3.30
2023-05-10T05:01:38.960Z,3.70
2023-05-10T05:02:44.771Z,3.90
2023-05-10T05:03:48.386Z,3.85
2023-05-10T05:04:50.696Z,3.72
2023-05-10T05:05:53.829Z,3.50
2023-05-10T05:06:56.358Z,3.72
2023-05-10T05:07:59.504Z,4.03
2023-05-10T05:09:01.631Z,4.53
2023-05-10T05:10:07.198Z,4.00
2023-05-10T05:11:10.561Z,4.20
2023-05-10T05:12:15.310Z,3.72
2023-05-10T05:13:18.520Z,4.20
2023-05-10T05:14:21.908Z,4.03
2023-05-10T05:15:25.120Z,4.03
2023-05-10T05:16:28.381Z,3.70
2023-05-10T05:17:33.530Z,4.20
2023-05-10T05:18:35.875Z,3.90
2023-05-10T05:19:39.214Z,3.67
2023-05-10T05:20:44.681Z,3.92
2023-05-10T05:21:47.861Z,3.83
2023-05-10T05:22:50.049Z,3.72
2023-05-10T05:23:53.506Z,3.72
2023-05-10T05:24:56.729Z,4.15
2023-05-10T05:26:02.807Z,4.63
2023-05-10T05:27:05.151Z,4.70
2023-05-10T05:28:08.714Z,4.38
2023-05-10T05:29:13.644Z,4.97
2023-05-10T05:30:17.263Z,5.32
2023-05-10T05:31:20.164Z,4.40
2023-05-10T05:32:23.812Z,4.13
2023-05-10T05:33:26.007Z,4.57
2023-05-10T05:34:29.266Z,4.53
2023-05-10T05:35:31.404Z,4.90
2023-05-10T05:36:37.054Z,4.18
2023-05-10T05:37:54.078Z,3.93
2023-05-10T05:38:57.807Z,4.13
2023-05-10T05:40:01.225Z,4.15
2023-05-10T05:41:08.553Z,3.90
2023-05-10T05:42:11.149Z,3.80
2023-05-10T05:43:14.648Z,3.95
2023-05-10T05:44:16.860Z,4.00
2023-05-10T05:45:20.640Z,4.07
2023-05-10T05:46:23.934Z,3.88
2023-05-10T05:47:26.544Z,3.75
2023-05-10T05:48:31.565Z,3.87
2023-05-10T05:49:35.166Z,4.35
2023-05-10T05:50:37.342Z,4.00
2023-05-10T05:51:40.498Z,3.70
2023-05-10T05:52:42.692Z,3.83
2023-05-10T05:53:46.230Z,4.00
2023-05-10T05:54:48.360Z,5.13
2023-05-10T05:55:55.552Z,5.43
2023-05-10T05:57:01.210Z,5.30
2023-05-10T05:58:05.227Z,5.68
2023-05-10T05:59:07.531Z,5.00
2023-05-10T06:00:11.350Z,5.13
2023-05-10T06:01:13.468Z,4.55
2023-05-10T06:02:16.764Z,4.72
2023-05-10T06:03:19.165Z,4.07
2023-05-10T06:04:22.575Z,4.53
2023-05-10T06:05:24.962Z,4.32
2023-05-10T06:06:28.787Z,3.88
2023-05-10T06:07:30.993Z,3.80
2023-05-10T06:08:35.003Z,3.50
2023-05-10T06:09:37.367Z,3.67
2023-05-10T06:10:40.562Z,3.88
2023-05-10T06:11:44.013Z,3.47
2023-05-10T06:12:48.705Z,3.42
2023-05-10T06:13:52.657Z,3.40
2023-05-10T06:14:55.822Z,3.13
2023-05-10T06:15:59.049Z,3.28
2023-05-10T06:17:01.339Z,3.30
2023-05-10T06:18:04.827Z,3.80
2023-05-10T06:19:07.164Z,3.15
2023-05-10T06:20:11.510Z,3.03
2023-05-10T06:21:14.705Z,3.47
2023-05-10T06:22:16.862Z,3.33
2023-05-10T06:23:20.130Z,3.00
2023-05-10T06:24:22.920Z,3.72
2023-05-10T06:25:26.172Z,3.38
2023-05-10T06:26:29.521Z,3.45
2023-05-10T06:27:32.789Z,3.22
2023-05-10T06:28:39.407Z,2.85
2023-05-10T06:29:42.661Z,3.08
2023-05-10T06:30:45.826Z,3.07
2023-05-10T06:31:49.250Z,3.08
2023-05-10T06:32:53.172Z,3.00
2023-05-10T06:33:56.884Z,3.33
2023-05-10T06:34:59.183Z,3.90
2023-05-10T06:36:03.096Z,2.88
2023-05-10T06:37:06.380Z,3.17
2023-05-10T06:38:08.585Z,3.45
2023-05-10T06:39:12.771Z,3.10
2023-05-10T06:40:15.515Z,3.03
2023-05-10T06:41:18.667Z,3.03
2023-05-10T06:42:20.898Z,3.00
2023-05-10T06:43:24.162Z,3.40
2023-05-10T06:44:28.804Z,2.63
2023-05-10T06:45:32.095Z,2.75
2023-05-10T06:46:34.288Z,2.85
2023-05-10T06:47:39.273Z,2.55
2023-05-10T06:48:42.715Z,2.30
2023-05-10T06:49:44.871Z,2.58
2023-05-10T06:50:48.020Z,2.58
2023-05-10T06:51:50.276Z,2.70
2023-05-10T06:52:53.560Z,2.35
2023-05-10T06:53:56.793Z,2.30
2023-05-10T06:54:58.981Z,2.50
2023-05-10T06:56:02.174Z,2.30
2023-05-10T06:57:08.802Z,2.35
2023-05-10T06:58:16.329Z,2.50
2023-05-10T06:59:20.306Z,2.20
2023-05-10T07:00:25.238Z,2.30
2023-05-10T07:01:28.537Z,2.38
2023-05-10T07:02:30.807Z,2.50
2023-05-10T07:03:34.149Z,2.50
2023-05-10T07:04:36.459Z,2.80
2023-05-10T07:05:39.905Z,2.58
2023-05-10T07:06:43.092Z,2.50
2023-05-10T07:07:45.379Z,2.53
2023-05-10T07:08:48.601Z,2.70
2023-05-10T07:09:51.083Z,2.55
2023-05-10T07:10:54.586Z,2.40
2023-05-10T07:11:58.335Z,2.50
2023-05-10T07:13:04.432Z,2.20
2023-05-10T07:14:07.767Z,2.13
2023-05-10T07:15:11.309Z,2.10
2023-05-10T07:16:16.051Z,2.05
2023-05-10T07:17:18.353Z,1.80
2023-05-10T07:18:22.577Z,1.83
2023-05-10T07:19:25.871Z,2.13
2023-05-10T07:20:29.445Z,2.10
2023-05-10T07:21:32.183Z,2.40
2023-05-10T07:22:37.781Z,2.03
2023-05-10T07:23:39.969Z,2.10
2023-05-10T07:24:45.440Z,2.08
2023-05-10T07:25:47.866Z,2.10
2023-05-10T07:26:51.099Z,2.00
2023-05-10T07:27:53.596Z,2.20
2023-05-10T07:28:57.032Z,2.08
2023-05-10T07:30:00.540Z,2.10
2023-05-10T07:31:03.346Z,2.53
2023-05-10T07:32:08.395Z,2.00
2023-05-10T07:33:11.446Z,2.38
2023-05-10T07:34:14.612Z,1.80
2023-05-10T07:35:17.201Z,2.00
2023-05-10T07:36:20.623Z,1.70
2023-05-10T07:37:22.725Z,1.83
2023-05-10T07:38:26.041Z,2.20
2023-05-10T07:39:28.513Z,1.92
2023-05-10T07:40:32.129Z,1.80
2023-05-10T07:41:36.476Z,2.47
2023-05-10T07:42:39.718Z,2.00
2023-05-10T07:43:41.893Z,1.90
2023-05-10T07:44:45.736Z,2.00
2023-05-10T07:45:48.013Z,1.95
2023-05-10T07:46:51.745Z,2.22
2023-05-10T07:47:56.680Z,1.90
2023-05-10T07:49:00.135Z,2.30
2023-05-10T07:50:02.669Z,2.00
2023-05-10T07:51:07.484Z,2.10
2023-05-10T07:52:09.678Z,2.00
2023-05-10T07:53:13.198Z,2.00
2023-05-10T07:54:16.420Z,2.05
2023-05-10T07:55:19.958Z,2.20
2023-05-10T07:56:26.262Z,1.95
2023-05-10T07:57:29.749Z,2.20
2023-05-10T07:58:35.221Z,2.10
2023-05-10T07:59:38.805Z,2.50
2023-05-10T08:00:43.023Z,2.38
2023-05-10T08:01:46.223Z,2.08
2023-05-10T08:02:49.815Z,2.30
2023-05-10T08:03:55.335Z,2.10
2023-05-10T08:04:57.541Z,2.10
2023-05-10T08:06:00.938Z,2.13
2023-05-10T08:07:03.133Z,2.03
2023-05-10T08:08:07.326Z,2.00
2023-05-10T08:09:12.511Z,2.28
2023-05-10T08:10:15.729Z,2.10
2023-05-10T08:11:18.513Z,2.00
2023-05-10T08:12:21.771Z,2.42
2023-05-10T08:13:23.987Z,2.35
2023-05-10T08:14:27.434Z,2.25
2023-05-10T08:15:30.639Z,2.10
2023-05-10T08:16:33.565Z,2.50
2023-05-10T08:17:37.025Z,2.28
2023-05-10T08:18:40.213Z,2.20
2023-05-10T08:19:45.159Z,2.58
2023-05-10T08:20:47.580Z,2.35
2023-05-10T08:21:51.274Z,2.28
2023-05-10T08:22:54.113Z,2.17
2023-05-10T08:23:57.524Z,2.40
2023-05-10T08:24:59.700Z,2.42
2023-05-10T08:26:02.942Z,2.05
2023-05-10T08:27:06.980Z,2.30
2023-05-10T08:28:11.979Z,2.58
2023-05-10T08:29:15.615Z,2.20
2023-05-10T08:30:18.754Z,2.40
2023-05-10T08:31:21.164Z,2.47
2023-05-10T08:32:24.348Z,2.33
2023-05-10T08:33:27.611Z,2.50
2023-05-10T08:34:29.792Z,2.42
2023-05-10T08:35:35.908Z,2.20
2023-05-10T08:36:39.133Z,2.25
2023-05-10T08:37:41.376Z,2.77
2023-05-10T08:38:44.762Z,2.65
2023-05-10T08:39:49.321Z,2.40
2023-05-10T08:40:57.652Z,2.30
2023-05-10T08:42:04.765Z,2.28
2023-05-10T08:43:08.194Z,2.60
2023-05-10T08:44:11.836Z,2.45
2023-05-10T08:45:16.932Z,2.53
2023-05-10T08:46:22.342Z,2.22
2023-05-10T08:47:24.914Z,2.40
2023-05-10T08:48:31.177Z,2.30
2023-05-10T08:49:34.011Z,2.60
2023-05-10T08:50:41.010Z,2.15
2023-05-10T08:51:47.860Z,2.67
2023-05-10T08:52:57.806Z,2.45
2023-05-10T08:54:00.732Z,2.53
2023-05-10T08:55:04.251Z,2.30
2023-05-10T08:56:07.411Z,3.03
2023-05-10T08:57:10.616Z,2.55
2023-05-10T08:58:13.729Z,2.30
2023-05-10T08:59:17.023Z,2.40
2023-05-10T09:00:21.768Z,2.70
2023-05-10T09:01:24.655Z,2.70
2023-05-10T09:02:28.850Z,2.22
2023-05-10T09:03:32.840Z,2.30
2023-05-10T09:04:35.241Z,2.30
2023-05-10T09:05:43.097Z,2.40
2023-05-10T09:06:45.298Z,2.10
2023-05-10T09:07:48.713Z,2.25
2023-05-10T09:08:51.187Z,2.20
2023-05-10T09:09:55.493Z,2.63
2023-05-10T09:10:57.916Z,2.60
2023-05-10T09:12:01.387Z,2.30
2023-05-10T09:13:04.366Z,2.70
2023-05-10T09:14:07.922Z,2.20
2023-05-10T09:15:12.311Z,2.35
2023-05-10T09:17:26.246Z,2.50
2023-05-10T09:18:28.496Z,2.35
2023-05-10T09:19:31.741Z,2.15
2023-05-10T09:20:34.163Z,2.20
2023-05-10T09:21:40.276Z,2.67
2023-05-10T09:22:42.522Z,2.38
2023-05-10T09:23:48.245Z,2.30
2023-05-10T09:25:06.237Z,2.30
2023-05-10T09:26:10.057Z,2.58
2023-05-10T09:27:12.669Z,2.40
2023-05-10T09:28:16.349Z,2.30
2023-05-10T09:29:18.857Z,2.80
2023-05-10T09:30:27.471Z,2.00
2023-05-10T09:31:47.383Z,2.30
2023-05-10T09:32:51.349Z,2.00
2023-05-10T09:33:56.241Z,2.35
2023-05-10T09:34:59.585Z,2.30
2023-05-10T09:36:09.776Z,2.20
2023-05-10T09:37:14.648Z,2.10
2023-05-10T09:38:16.843Z,1.90
2023-05-10T09:39:20.264Z,1.95
2023-05-10T09:40:25.101Z,2.05
2023-05-10T09:41:28.374Z,1.75
2023-05-10T09:42:30.967Z,2.20
2023-05-10T09:43:40.345Z,2.25
2023-05-10T09:44:44.472Z,2.10
2023-05-10T09:45:50.872Z,1.88
2023-05-10T09:46:56.519Z,2.10
2023-05-10T09:48:01.555Z,2.10
2023-05-10T09:49:03.784Z,2.25
2023-05-10T09:50:08.107Z,1.67
2023-05-10T09:51:10.456Z,2.20
2023-05-10T09:52:17.523Z,1.85
2023-05-10T09:53:20.733Z,1.90
2023-05-10T09:54:24.847Z,2.03
2023-05-10T09:55:41.403Z,2.42
2023-05-10T09:56:44.728Z,1.80
2023-05-10T09:57:48.360Z,2.22
2023-05-10T09:59:03.839Z,2.00
2023-05-10T10:00:08.437Z,1.90
2023-05-10T10:01:15.195Z,2.10
2023-05-10T10:02:21.058Z,2.13
2023-05-10T10:03:23.931Z,2.30
2023-05-10T10:04:28.486Z,2.30
2023-05-10T10:05:31.293Z,2.10
2023-05-10T10:06:39.073Z,2.33
2023-05-10T10:07:45.440Z,2.50
2023-05-10T10:08:47.801Z,2.20
2023-05-10T10:09:51.682Z,2.42
2023-05-10T10:10:54.955Z,2.33
2023-05-10T10:11:57.767Z,2.00
2023-05-10T10:13:01.843Z,2.00
2023-05-10T10:14:05.695Z,1.83
2023-05-10T10:15:10.618Z,2.47
2023-05-10T10:16:15.095Z,2.10
2023-05-10T10:17:18.829Z,2.42
2023-05-10T10:18:28.077Z,2.10
2023-05-10T10:19:35.142Z,2.33
2023-05-10T10:20:38.809Z,2.35
2023-05-10T10:21:42.049Z,2.50
2023-05-10T10:22:45.936Z,2.72
2023-05-10T10:23:49.827Z,2.28
2023-05-10T10:24:53.244Z,2.40
2023-05-10T10:25:56.439Z,2.63
2023-05-10T10:27:11.579Z,2.50
2023-05-10T10:28:28.291Z,2.78
2023-05-10T10:29:42.072Z,2.83
2023-05-10T10:30:48.608Z,2.88
2023-05-10T10:31:59.835Z,2.85
2023-05-10T10:33:36.040Z,3.00
2023-05-10T10:34:41.611Z,3.20
2023-05-10T10:35:46.711Z,3.92
2023-05-10T10:36:50.353Z,3.40
2023-05-10T10:37:53.985Z,3.23
2023-05-10T10:39:00.675Z,2.92
2023-05-10T10:40:27.974Z,3.20
2023-05-10T10:41:33.871Z,2.92
2023-05-10T10:42:50.961Z,3.05
2023-05-10T10:44:25.565Z,2.97
2023-05-10T10:45:28.767Z,2.75
2023-05-10T10:46:31.040Z,3.00
2023-05-10T10:47:34.637Z,3.00
2023-05-10T10:48:37.233Z,3.22
2023-05-10T10:49:45.002Z,3.43
2023-05-10T10:50:48.660Z,2.75
2023-05-10T10:52:15.405Z,2.00
2023-05-10T10:53:20.738Z,2.08
2023-05-10T10:54:29.655Z,2.00
2023-05-10T10:55:33.406Z,2.35
2023-05-10T10:56:37.121Z,2.15
2023-05-10T10:57:48.523Z,2.03
2023-05-10T10:58:52.376Z,1.80
2023-05-10T11:00:23.569Z,1.40
2023-05-10T11:01:35.437Z,1.50
2023-05-10T11:02:47.197Z,1.38
2023-05-10T11:04:22.769Z,1.48
2023-05-10T11:05:47.258Z,1.40
2023-05-10T11:06:49.367Z,1.15
2023-05-10T11:07:56.994Z,1.25
2023-05-10T11:09:02.387Z,1.40
2023-05-10T11:10:06.170Z,1.42
2023-05-10T11:11:10.103Z,1.50
2023-05-10T11:12:12.371Z,1.17
2023-05-10T11:13:15.612Z,1.30
2023-05-10T11:14:22.507Z,1.10
2023-05-10T11:15:32.008Z,1.13
2023-05-10T11:16:43.788Z,1.40
2023-05-10T11:17:48.445Z,1.00
2023-05-10T11:19:11.696Z,1.15
2023-05-10T11:20:16.702Z,1.17
2023-05-10T11:21:20.126Z,1.15
2023-05-10T11:22:23.354Z,1.30
2023-05-10T11:23:30.793Z,1.23
2023-05-10T11:24:36.831Z,1.50
2023-05-10T11:25:44.206Z,1.20
2023-05-10T11:26:47.944Z,1.25
2023-05-10T11:27:50.093Z,1.60
2023-05-10T11:28:56.095Z,1.10
2023-05-10T11:29:58.441Z,1.20
2023-05-10T11:31:01.867Z,1.77
2023-05-10T11:32:09.228Z,1.35
2023-05-10T11:33:17.929Z,1.33
2023-05-10T11:34:31.757Z,1.30
2023-05-10T11:35:42.486Z,1.23
2023-05-10T11:36:55.336Z,1.10
2023-05-10T11:37:57.616Z,1.40
2023-05-10T11:39:00.884Z,1.35
2023-05-10T11:40:06.123Z,1.20
2023-05-10T11:41:11.075Z,1.50
2023-05-10T11:42:14.743Z,1.60
2023-05-10T11:43:17.162Z,1.50
2023-05-10T11:44:20.730Z,1.20
2023-05-10T11:45:25.435Z,1.58
2023-05-10T11:46:30.070Z,1.57
2023-05-10T11:47:34.649Z,1.05
2023-05-10T11:48:39.399Z,1.52
2023-05-10T11:49:46.047Z,1.70
2023-05-10T11:50:49.305Z,1.33
2023-05-10T11:51:52.507Z,1.20
2023-05-10T11:52:56.592Z,1.40
2023-05-10T11:53:59.841Z,1.45
2023-05-10T11:55:02.087Z,1.90
2023-05-10T11:56:07.978Z,1.52
2023-05-10T11:57:12.441Z,1.63
2023-05-10T11:58:15.911Z,1.85
2023-05-10T11:59:19.120Z,1.63
2023-05-10T12:00:24.172Z,1.33
2023-05-10T12:01:29.464Z,1.40
2023-05-10T12:02:32.471Z,1.40
2023-05-10T12:03:36.672Z,1.67
2023-05-10T12:04:40.862Z,1.50
2023-05-10T12:05:44.178Z,1.58
2023-05-10T12:06:47.878Z,1.77
2023-05-10T12:07:51.534Z,1.20
2023-05-10T12:08:54.839Z,1.40
2023-05-10T12:10:13.493Z,1.60
2023-05-10T12:11:19.762Z,1.50
2023-05-10T12:12:22.009Z,1.38
2023-05-10T12:13:25.513Z,1.75
2023-05-10T12:14:27.612Z,1.45
2023-05-10T12:15:31.065Z,1.00
2023-05-10T12:16:33.364Z,1.30
2023-05-10T12:17:41.963Z,1.38
2023-05-10T12:18:47.409Z,1.30
2023-05-10T12:19:49.830Z,1.30
2023-05-10T12:20:57.245Z,1.73
2023-05-10T12:22:01.145Z,1.17
2023-05-10T12:23:05.022Z,1.80
2023-05-10T12:24:08.726Z,1.30
2023-05-10T12:25:14.650Z,1.55
2023-05-10T12:26:19.775Z,1.33
2023-05-10T12:27:22.306Z,1.30
2023-05-10T12:28:28.565Z,1.45
2023-05-10T12:29:31.777Z,1.50
2023-05-10T12:30:36.700Z,1.23
2023-05-10T12:31:51.885Z,1.20
2023-05-10T12:32:55.071Z,1.73
2023-05-10T12:33:58.496Z,1.40
2023-05-10T12:35:01.009Z,1.30
2023-05-10T12:36:05.162Z,1.35
2023-05-10T12:37:08.556Z,1.40
2023-05-10T12:38:26.292Z,1.58
2023-05-10T12:39:40.922Z,1.05
2023-05-10T12:40:44.395Z,1.37
2023-05-10T12:41:49.670Z,1.35
2023-05-10T12:42:53.216Z,1.30
2023-05-10T12:43:55.468Z,1.30
2023-05-10T12:44:59.239Z,1.40
2023-05-10T12:46:07.584Z,1.17
2023-05-10T12:47:09.755Z,1.60
2023-05-10T12:48:13.202Z,1.42
2023-05-10T12:49:15.734Z,1.10
2023-05-10T12:50:19.313Z,1.77
2023-05-10T12:51:23.364Z,1.70
2023-05-10T12:52:27.098Z,1.67
2023-05-10T12:53:29.514Z,1.73
2023-05-10T12:54:32.904Z,1.38
2023-05-10T12:55:35.047Z,1.25
2023-05-10T12:56:38.849Z,1.30
2023-05-10T12:57:43.806Z,1.67
2023-05-10T12:58:49.588Z,1.50
2023-05-10T12:59:52.864Z,1.73
2023-05-10T13:00:57.465Z,1.58
2023-05-10T13:02:00.701Z,1.80
2023-05-10T13:03:03.272Z,1.70
2023-05-10T13:04:09.165Z,1.75
2023-05-10T13:05:14.223Z,1.60
2023-05-10T13:06:19.657Z,1.85
2023-05-10T13:07:21.810Z,1.80
2023-05-10T13:08:25.513Z,1.70
2023-05-10T13:09:28.108Z,1.63
2023-05-10T13:10:32.476Z,2.33
2023-05-10T13:11:35.802Z,2.25
2023-05-10T13:12:50.337Z,2.33
2023-05-10T13:13:55.063Z,2.20
2023-05-10T13:14:58.527Z,1.88
2023-05-10T13:16:00.850Z,2.92
2023-05-10T13:17:06.362Z,2.00
2023-05-10T13:18:09.666Z,2.03
2023-05-10T13:19:12.622Z,2.47
2023-05-10T13:20:16.141Z,1.90
2023-05-10T13:21:18.527Z,2.28
2023-05-10T13:22:32.365Z,2.25
2023-05-10T13:23:39.078Z,2.33
2023-05-10T13:24:43.420Z,1.67
2023-05-10T13:25:45.684Z,2.05
2023-05-10T13:26:49.497Z,1.98
2023-05-10T13:27:52.683Z,1.85
2023-05-10T13:28:57.015Z,1.80
2023-05-10T13:30:00.510Z,1.60
2023-05-10T13:31:03.798Z,1.60
2023-05-10T13:32:07.518Z,2.20
2023-05-10T13:33:11.113Z,2.08
2023-05-10T13:34:15.854Z,1.80
2023-05-10T13:35:19.093Z,1.40
2023-05-10T13:36:21.508Z,2.22
2023-05-10T13:37:24.696Z,2.33
2023-05-10T13:38:27.326Z,1.88
2023-05-10T13:39:34.361Z,1.77
2023-05-10T13:40:37.850Z,1.90
2023-05-10T13:41:43.296Z,1.48
2023-05-10T13:42:47.925Z,2.00
2023-05-10T13:43:51.386Z,1.73
2023-05-10T13:44:56.228Z,1.70
2023-05-10T13:45:58.702Z,1.75
2023-05-10T13:47:02.152Z,1.88
2023-05-10T13:48:05.510Z,1.65
2023-05-10T13:49:08.810Z,2.70
2023-05-10T13:50:11.517Z,2.00
2023-05-10T13:51:18.096Z,1.65
2023-05-10T13:52:20.331Z,1.80
2023-05-10T13:53:23.579Z,1.88
2023-05-10T13:54:28.998Z,1.95
2023-05-10T13:55:37.162Z,2.00
2023-05-10T13:56:39.378Z,1.90
2023-05-10T13:57:42.715Z,2.22
2023-05-10T13:58:45.486Z,2.30
2023-05-10T13:59:49.283Z,2.03
2023-05-10T14:00:53.118Z,2.10
2023-05-10T14:01:56.585Z,2.90
2023-05-10T14:02:59.868Z,1.88
2023-05-10T14:04:02.307Z,1.63
2023-05-10T14:05:06.329Z,2.10
2023-05-10T14:06:09.553Z,1.80
2023-05-10T14:07:12.721Z,1.52
2023-05-10T14:08:15.906Z,2.10
2023-05-10T14:09:19.265Z,1.80
2023-05-10T14:10:21.837Z,1.98
2023-05-10T14:11:25.581Z,1.77
2023-05-10T14:12:28.155Z,1.70
2023-05-10T14:13:32.639Z,2.08
2023-05-10T14:14:34.788Z,1.40
2023-05-10T14:15:38.657Z,1.70
2023-05-10T14:16:46.196Z,1.90
2023-05-10T14:17:48.862Z,1.70
2023-05-10T14:18:53.429Z,1.65
2023-05-10T14:19:55.573Z,2.08
2023-05-10T14:20:58.963Z,2.08
2023-05-10T14:22:02.203Z,1.92
2023-05-10T14:23:05.414Z,2.20
2023-05-10T14:24:11.488Z,1.95
2023-05-10T14:25:14.564Z,1.60